Time,TemperatureF,DewpointF,PressureIn,WindDirection,WindDirectionDegrees,WindSpeedMPH,WindSpeedGustMPH,Humidity,HourlyPrecipIn,Conditions,Clouds,dailyrainin,SoftwareType,DateUTC
2013-03-16 12:29:00,33.5,28.9,29.82,East,93,2.0,0.0,83,0.00,,,0.00,WeatherTracker,2013-03-16 16:29:00,
2013-03-16 12:31:00,33.5,28.9,29.82,East,93,2.0,6.0,83,0.00,,,0.00,WeatherTracker,2013-03-16 16:31:00,
2013-03-16 12:32:00,33.4,29.1,29.82,East,93,4.0,6.0,84,0.00,,,0.00,WeatherTracker,2013-03-16 16:32:00,
2013-03-16 12:37:00,33.1,29.1,29.82,East,94,3.0,6.0,85,0.00,,,0.00,WeatherTracker,2013-03-16 16:37:00,
2013-03-16 12:42:00,32.9,29.2,29.82,East,93,2.0,6.0,86,0.00,,,0.00,WeatherTracker,2013-03-16 16:42:00,
2013-03-16 12:47:00,32.8,29.4,29.82,East,93,0.0,5.0,87,0.00,,,0.00,WeatherTracker,2013-03-16 16:47:00,
2013-03-16 12:52:00,32.7,29.5,29.82,East,93,1.0,4.0,88,0.00,,,0.00,WeatherTracker,2013-03-16 16:52:00,
2013-03-16 12:57:00,32.8,29.9,29.82,East,93,4.0,4.0,89,0.00,,,0.00,WeatherTracker,2013-03-16 16:57:00,
2013-03-16 13:02:00,32.9,30.0,29.81,East,93,2.0,5.0,89,0.00,,,0.00,WeatherTracker,2013-03-16 17:02:00,
2013-03-16 13:07:00,33.1,30.2,29.81,East,93,3.0,5.0,89,0.00,,,0.00,WeatherTracker,2013-03-16 17:07:00,
2013-03-16 13:12:00,33.2,30.6,29.81,East,90,4.0,5.0,90,0.00,,,0.00,WeatherTracker,2013-03-16 17:12:00,
2013-03-16 13:17:00,33.1,30.5,29.81,East,90,4.0,6.0,90,0.00,,,0.00,WeatherTracker,2013-03-16 17:17:00,
2013-03-16 13:22:00,33.1,30.5,29.81,NNE,26,3.0,6.0,90,0.00,,,0.00,WeatherTracker,2013-03-16 17:22:00,
2013-03-16 13:27:00,33.1,30.5,29.81,NNE,30,3.0,6.0,90,0.00,,,0.00,WeatherTracker,2013-03-16 17:27:00,
2013-03-16 13:33:00,33.2,30.9,29.81,NE,34,5.0,5.0,91,0.00,,,0.00,WeatherTracker,2013-03-16 17:33:00,
2013-03-16 13:38:00,33.2,30.9,29.81,NE,38,4.0,7.0,91,0.00,,,0.00,WeatherTracker,2013-03-16 17:38:00,
2013-03-16 13:43:00,33.2,30.9,29.81,NE,47,2.0,7.0,91,0.00,,,0.00,WeatherTracker,2013-03-16 17:43:00,
2013-03-16 13:48:00,33.2,30.9,29.79,NE,56,5.0,7.0,91,0.00,,,0.00,WeatherTracker,2013-03-16 17:48:00,
2013-03-16 13:53:00,33.4,31.1,29.79,ENE,63,5.0,9.0,91,0.01,,,0.01,WeatherTracker,2013-03-16 17:53:00,
2013-03-16 13:58:00,33.5,31.2,29.79,ENE,64,4.0,9.0,91,0.01,,,0.01,WeatherTracker,2013-03-16 17:58:00,
2013-03-16 14:03:00,33.5,31.2,29.79,ENE,66,4.0,7.0,91,0.01,,,0.01,WeatherTracker,2013-03-16 18:03:00,
2013-03-16 14:08:00,33.5,31.2,29.79,NE,39,3.0,8.0,91,0.01,,,0.01,WeatherTracker,2013-03-16 18:08:00,
2013-03-16 14:13:00,33.7,31.4,29.79,ENE,62,4.0,8.0,91,0.01,,,0.01,WeatherTracker,2013-03-16 18:13:00,
2013-03-16 14:18:00,33.7,31.1,29.78,ENE,59,5.0,7.0,90,0.01,,,0.01,WeatherTracker,2013-03-16 18:18:00,
2013-03-16 14:23:00,33.8,31.2,29.78,NE,56,5.0,8.0,90,0.01,,,0.01,WeatherTracker,2013-03-16 18:23:00,
2013-03-16 14:28:00,34.0,31.4,29.78,NE,54,2.0,8.0,90,0.01,,,0.01,WeatherTracker,2013-03-16 18:28:00,
2013-03-16 14:33:00,34.0,31.1,29.79,North,9,4.0,9.0,89,0.01,,,0.01,WeatherTracker,2013-03-16 18:33:00,
2013-03-16 14:38:00,33.8,30.9,29.79,NE,39,3.0,9.0,89,0.01,,,0.01,WeatherTracker,2013-03-16 18:38:00,
2013-03-16 14:43:00,33.8,30.9,29.79,NE,43,5.0,7.0,89,0.01,,,0.01,WeatherTracker,2013-03-16 18:43:00,
2013-03-16 14:48:00,33.7,30.8,29.79,NNE,21,5.0,6.0,89,0.01,,,0.01,WeatherTracker,2013-03-16 18:48:00,
2013-03-16 14:53:00,33.5,30.6,29.79,NNE,25,1.0,6.0,89,0.00,,,0.01,WeatherTracker,2013-03-16 18:53:00,
2013-03-16 14:58:00,33.2,30.3,29.79,NE,53,3.0,6.0,89,0.00,,,0.01,WeatherTracker,2013-03-16 18:58:00,
2013-03-16 15:03:00,33.1,30.2,29.79,NE,53,3.0,6.0,89,0.00,,,0.01,WeatherTracker,2013-03-16 19:03:00,
2013-03-16 15:09:00,33.1,30.5,29.79,NE,54,1.0,6.0,90,0.00,,,0.01,WeatherTracker,2013-03-16 19:09:00,
2013-03-16 15:14:00,33.1,30.5,29.77,ENE,59,4.0,5.0,90,0.00,,,0.01,WeatherTracker,2013-03-16 19:14:00,
2013-03-16 15:19:00,33.1,30.5,29.77,ENE,60,3.0,6.0,90,0.00,,,0.01,WeatherTracker,2013-03-16 19:19:00,
2013-03-16 15:24:00,32.9,30.3,29.77,East,82,6.0,8.0,90,0.00,,,0.01,WeatherTracker,2013-03-16 19:24:00,
2013-03-16 15:29:00,32.9,30.6,29.76,East,80,3.0,8.0,91,0.00,,,0.01,WeatherTracker,2013-03-16 19:29:00,
2013-03-16 15:34:00,32.9,30.6,29.76,ENE,74,5.0,9.0,91,0.00,,,0.01,WeatherTracker,2013-03-16 19:34:00,
2013-03-16 15:39:00,33.1,30.8,29.76,ENE,66,2.0,9.0,91,0.00,,,0.01,WeatherTracker,2013-03-16 19:39:00,
2013-03-16 15:44:00,33.1,30.8,29.76,NNE,26,5.0,9.0,91,0.00,,,0.01,WeatherTracker,2013-03-16 19:44:00,
2013-03-16 15:49:00,33.1,31.0,29.76,NE,45,4.0,9.0,92,0.00,,,0.01,WeatherTracker,2013-03-16 19:49:00,
2013-03-16 15:54:00,33.1,31.0,29.76,North,10,5.0,9.0,92,0.00,,,0.01,WeatherTracker,2013-03-16 19:54:00,
2013-03-16 15:59:00,33.1,31.0,29.77,NNE,24,4.0,10.0,92,0.00,,,0.01,WeatherTracker,2013-03-16 19:59:00,
2013-03-16 16:04:00,32.9,30.8,29.77,NNE,26,5.0,10.0,92,0.00,,,0.01,WeatherTracker,2013-03-16 20:04:00,
2013-03-16 16:09:00,32.9,30.8,29.77,NNE,29,3.0,8.0,92,0.00,,,0.01,WeatherTracker,2013-03-16 20:09:00,
2013-03-16 16:14:00,32.9,30.8,29.77,NNE,30,4.0,7.0,92,0.00,,,0.01,WeatherTracker,2013-03-16 20:14:00,
2013-03-16 16:19:00,32.8,30.7,29.77,NNE,30,2.0,6.0,92,0.00,,,0.01,WeatherTracker,2013-03-16 20:19:00,
2013-03-16 16:24:00,32.8,30.7,29.77,NE,43,1.0,6.0,92,0.00,,,0.01,WeatherTracker,2013-03-16 20:24:00,
2013-03-16 16:29:00,32.8,30.7,29.76,NE,43,4.0,6.0,92,0.00,,,0.01,WeatherTracker,2013-03-16 20:29:00,
2013-03-16 16:34:00,32.8,31.0,29.76,ENE,63,3.0,5.0,93,0.00,,,0.01,WeatherTracker,2013-03-16 20:34:00,
2013-03-16 16:39:00,32.8,31.0,29.76,ENE,62,1.0,5.0,93,0.00,,,0.01,WeatherTracker,2013-03-16 20:39:00,
2013-03-16 16:44:00,32.8,31.0,29.76,ENE,63,2.0,5.0,93,0.00,,,0.01,WeatherTracker,2013-03-16 20:44:00,
2013-03-16 16:49:00,32.8,31.0,29.76,ENE,63,4.0,4.0,93,0.00,,,0.01,WeatherTracker,2013-03-16 20:49:00,
2013-03-16 16:54:00,32.8,31.0,29.76,ENE,63,2.0,4.0,93,0.00,,,0.01,WeatherTracker,2013-03-16 20:54:00,
2013-03-16 16:59:00,32.9,31.1,29.77,ENE,62,4.0,4.0,93,0.00,,,0.01,WeatherTracker,2013-03-16 20:59:00,
2013-03-16 17:05:00,32.8,31.0,29.77,ENE,61,2.0,5.0,93,0.00,,,0.01,WeatherTracker,2013-03-16 21:05:00,
2013-03-16 17:10:00,32.8,31.0,29.77,ENE,61,3.0,5.0,93,0.00,,,0.01,WeatherTracker,2013-03-16 21:10:00,
2013-03-16 17:15:00,32.8,31.0,29.76,NE,36,5.0,6.0,93,0.00,,,0.01,WeatherTracker,2013-03-16 21:15:00,
2013-03-16 17:20:00,32.9,31.1,29.76,NE,39,5.0,6.0,93,0.00,,,0.01,WeatherTracker,2013-03-16 21:20:00,
2013-03-16 17:25:00,32.9,31.1,29.76,NE,42,3.0,6.0,93,0.01,,,0.02,WeatherTracker,2013-03-16 21:25:00,
2013-03-16 17:30:00,32.9,31.1,29.77,NE,42,2.0,6.0,93,0.01,,,0.02,WeatherTracker,2013-03-16 21:30:00,
2013-03-16 17:35:00,32.9,31.1,29.77,NE,42,3.0,6.0,93,0.01,,,0.02,WeatherTracker,2013-03-16 21:35:00,
2013-03-16 17:40:00,32.8,31.0,29.77,NE,42,3.0,6.0,93,0.01,,,0.02,WeatherTracker,2013-03-16 21:40:00,
2013-03-16 17:45:00,32.8,31.0,29.78,NE,42,2.0,6.0,93,0.01,,,0.02,WeatherTracker,2013-03-16 21:45:00,
2013-03-16 17:50:00,32.8,31.0,29.78,NE,43,3.0,6.0,93,0.01,,,0.02,WeatherTracker,2013-03-16 21:50:00,
2013-03-16 17:56:00,32.8,31.0,29.78,NE,45,4.0,6.0,93,0.01,,,0.02,WeatherTracker,2013-03-16 21:56:00,
2013-03-16 18:01:00,32.8,31.0,29.77,NE,35,3.0,6.0,93,0.01,,,0.02,WeatherTracker,2013-03-16 22:01:00,
2013-03-16 18:06:00,32.8,31.0,29.77,NE,35,4.0,6.0,93,0.01,,,0.02,WeatherTracker,2013-03-16 22:06:00,
2013-03-16 18:11:00,32.8,31.0,29.77,NE,36,3.0,5.0,93,0.01,,,0.02,WeatherTracker,2013-03-16 22:11:00,
2013-03-16 18:16:00,32.8,31.0,29.77,NE,38,4.0,5.0,93,0.01,,,0.02,WeatherTracker,2013-03-16 22:16:00,
2013-03-16 18:21:00,32.8,31.0,29.77,NE,39,2.0,5.0,93,0.01,,,0.02,WeatherTracker,2013-03-16 22:21:00,
2013-03-16 18:26:00,32.8,31.0,29.77,NE,39,4.0,5.0,93,0.00,,,0.02,WeatherTracker,2013-03-16 22:26:00,
2013-03-16 18:31:00,32.8,31.0,29.77,NE,39,2.0,5.0,93,0.00,,,0.02,WeatherTracker,2013-03-16 22:31:00,
2013-03-16 18:36:00,32.8,31.0,29.77,NE,39,2.0,6.0,93,0.00,,,0.02,WeatherTracker,2013-03-16 22:36:00,
2013-03-16 18:41:00,32.8,31.0,29.77,NE,40,4.0,6.0,93,0.01,,,0.03,WeatherTracker,2013-03-16 22:41:00,
2013-03-16 18:46:00,32.8,31.0,29.78,NE,40,3.0,5.0,93,0.01,,,0.03,WeatherTracker,2013-03-16 22:46:00,
2013-03-16 18:51:00,32.8,31.0,29.78,NE,42,4.0,7.0,93,0.01,,,0.03,WeatherTracker,2013-03-16 22:51:00,
2013-03-16 18:56:00,32.8,31.0,29.78,NE,42,2.0,7.0,93,0.01,,,0.03,WeatherTracker,2013-03-16 22:56:00,